createdAt,value
2022-10-09T00:00:28.998Z,102607.50
2022-10-09T00:01:04.376Z,102616.13
2022-10-09T00:01:35.742Z,102614.06
2022-10-09T00:02:07.119Z,102611.66
2022-10-09T00:02:38.981Z,102614.38
2022-10-09T00:03:10.405Z,102617.59
2022-10-09T00:03:44.051Z,102621.41
2022-10-09T00:04:15.589Z,102615.50
2022-10-09T00:04:46.898Z,102617.72
2022-10-09T00:05:18.510Z,102615.50
2022-10-09T00:05:50.049Z,102622.53
2022-10-09T00:06:27.778Z,102624.94
2022-10-09T00:06:59.135Z,102617.25
2022-10-09T00:07:30.480Z,102619.50
2022-10-09T00:08:01.812Z,102619.97
2022-10-09T00:08:35.209Z,102625.09
2022-10-09T00:09:06.604Z,102615.66
2022-10-09T00:09:37.935Z,102618.06
2022-10-09T00:10:09.606Z,102617.59
2022-10-09T00:10:42.768Z,102618.69
2022-10-09T00:11:17.592Z,102623.03
2022-10-09T00:11:48.894Z,102617.09
2022-10-09T00:12:20.263Z,102619.31
2022-10-09T00:12:51.754Z,102617.72
2022-10-09T00:13:23.400Z,102617.72
2022-10-09T00:13:55.767Z,102616.91
2022-10-09T00:14:27.079Z,102616.13
2022-10-09T00:14:58.410Z,102612.91
2022-10-09T00:15:29.746Z,102619.94
2022-10-09T00:16:08.529Z,102621.84
2022-10-09T00:16:40.194Z,102618.34
2022-10-09T00:17:11.713Z,102614.31
2022-10-09T00:17:43.110Z,102623.25
2022-10-09T00:18:17.265Z,102622.28
2022-10-09T00:18:49.583Z,102627.88
2022-10-09T00:19:21.017Z,102619.25
2022-10-09T00:19:52.509Z,102627.09
2022-10-09T00:20:23.877Z,102620.06
2022-10-09T00:20:55.182Z,102621.78
2022-10-09T00:21:29.740Z,102621.47
2022-10-09T00:22:01.092Z,102616.84
2022-10-09T00:22:32.846Z,102624.19
2022-10-09T00:23:04.412Z,102623.38
2022-10-09T00:23:35.729Z,102613.78
2022-10-09T00:24:07.122Z,102624.50
2022-10-09T00:24:38.531Z,102623.53
2022-10-09T00:25:10.200Z,102622.91
2022-10-09T00:25:59.990Z,102626.41
2022-10-09T00:26:31.972Z,102627.22
2022-10-09T00:27:03.402Z,102631.84
2022-10-09T00:27:34.714Z,102632.94
2022-10-09T00:28:06.184Z,102632.13
2022-10-09T00:28:38.989Z,102625.13
2022-10-09T00:29:10.474Z,102624.34
2022-10-09T00:29:42.057Z,102617.94
2022-10-09T00:30:13.674Z,102625.59
2022-10-09T00:30:45.046Z,102621.63
2022-10-09T00:31:17.110Z,102626.25
2022-10-09T00:31:50.680Z,102627.06
2022-10-09T00:32:22.051Z,102626.25
2022-10-09T00:32:54.033Z,102625.44
2022-10-09T00:33:26.498Z,102631.19
2022-10-09T00:33:57.897Z,102622.06
2022-10-09T00:34:29.226Z,102624.75
2022-10-09T00:35:00.733Z,102619.84
2022-10-09T00:35:32.051Z,102620.44
2022-10-09T00:36:10.166Z,102628.28
2022-10-09T00:36:41.538Z,102615.34
2022-10-09T00:37:12.875Z,102619.47
2022-10-09T00:37:44.472Z,102614.03
2022-10-09T00:38:16.301Z,102624.28
2022-10-09T00:38:48.019Z,102617.25
2022-10-09T00:39:19.338Z,102626.97
2022-10-09T00:39:50.633Z,102619.47
2022-10-09T00:40:21.942Z,102619.16
2022-10-09T00:40:53.244Z,102615.94
2022-10-09T00:41:30.488Z,102618.66
2022-10-09T00:42:02.855Z,102624.09
2022-10-09T00:42:34.181Z,102614.03
2022-10-09T00:43:14.706Z,102618.66
2022-10-09T00:44:00.381Z,102619.78
2022-10-09T00:44:57.718Z,102614.66
2022-10-09T00:45:30.024Z,102627.09
2022-10-09T00:46:01.722Z,102620.38
2022-10-09T00:46:34.878Z,102623.88
2022-10-09T00:47:23.169Z,102616.56
2022-10-09T00:47:59.201Z,102618.47
2022-10-09T00:48:31.602Z,102613.84
2022-10-09T00:49:15.245Z,102611.94
2022-10-09T00:49:48.274Z,102614.66
2022-10-09T00:50:40.228Z,102623.09
2022-10-09T00:51:11.757Z,102612.88
2022-10-09T00:51:45.893Z,102612.09
2022-10-09T00:52:17.463Z,102612.09
2022-10-09T00:52:52.130Z,102616.41
2022-10-09T00:53:27.414Z,102611.28
2022-10-09T00:53:59.664Z,102616.53
2022-10-09T00:54:34.184Z,102608.38
2022-10-09T00:55:07.592Z,102623.53
2022-10-09T00:55:39.761Z,102615.72
2022-10-09T00:56:11.107Z,102619.53
2022-10-09T00:56:42.771Z,102607.59
2022-10-09T00:57:14.361Z,102615.22
2022-10-09T00:57:46.340Z,102610.09
2022-10-09T00:58:18.511Z,102612.19
2022-10-09T00:58:54.694Z,102610.09
2022-10-09T00:59:27.191Z,102615.72
2022-10-09T01:00:01.977Z,102616.53
2022-10-09T01:00:33.302Z,102621.13
2022-10-09T01:01:04.788Z,102620.34
2022-10-09T01:01:36.249Z,102623.34
2022-10-09T01:02:07.981Z,102618.72
2022-10-09T01:02:39.999Z,102620.66
2022-10-09T01:03:11.582Z,102617.13
2022-10-09T01:03:42.878Z,102607.69
2022-10-09T01:04:14.425Z,102621.44
2022-10-09T01:04:45.812Z,102618.22
2022-10-09T01:05:17.381Z,102613.13
2022-10-09T01:06:05.852Z,102615.53
2022-10-09T01:06:55.305Z,102617.44
2022-10-09T01:07:38.063Z,102615.03
2022-10-09T01:08:32.288Z,102615.81
2022-10-09T01:09:12.766Z,102613.44
2022-10-09T01:09:44.026Z,102615.34
2022-10-09T01:10:30.127Z,102616.75
2022-10-09T01:11:09.574Z,102620.75
2022-10-09T01:11:44.448Z,102619.47
2022-10-09T01:12:40.319Z,102612.94
2022-10-09T01:13:14.689Z,102615.63
2022-10-09T01:13:59.132Z,102618.34
2022-10-09T01:14:37.550Z,102616.75
2022-10-09T01:15:17.817Z,102614.03
2022-10-09T01:15:54.215Z,102617.84
2022-10-09T01:16:30.377Z,102613.53
2022-10-09T01:17:25.012Z,102613.53
2022-10-09T01:18:24.035Z,102603.00
2022-10-09T01:19:20.789Z,102604.94
2022-10-09T01:20:13.342Z,102610.38
2022-10-09T01:20:49.503Z,102611.47
2022-10-09T01:21:28.822Z,102612.56
2022-10-09T01:22:33.963Z,102614.19
2022-10-09T01:23:35.765Z,102612.56
2022-10-09T01:24:33.431Z,102616.41
2022-10-09T01:25:11.147Z,102622.91
2022-10-09T01:26:00.758Z,102609.66
2022-10-09T01:26:57.643Z,102605.66
2022-10-09T01:27:30.400Z,102601.34
2022-10-09T01:28:05.404Z,102605.97
2022-10-09T01:28:40.695Z,102599.75
2022-10-09T01:29:14.645Z,102599.75
2022-10-09T01:29:50.684Z,102600.84
2022-10-09T01:30:22.212Z,102601.16
2022-10-09T01:30:53.849Z,102599.56
2022-10-09T01:31:30.751Z,102601.47
2022-10-09T01:32:04.467Z,102601.97
2022-10-09T01:32:40.865Z,102603.06
2022-10-09T01:33:13.052Z,102599.84
2022-10-09T01:33:45.860Z,102596.34
2022-10-09T01:34:19.798Z,102600.66
2022-10-09T01:34:53.204Z,102599.06
2022-10-09T01:35:26.154Z,102592.66
2022-10-09T01:35:59.603Z,102591.22
2022-10-09T01:36:31.649Z,102596.19
2022-10-09T01:37:04.209Z,102591.53
2022-10-09T01:37:39.304Z,102592.66
2022-10-09T01:38:10.816Z,102595.03
2022-10-09T01:38:43.797Z,102590.25
2022-10-09T01:39:17.991Z,102594.56
2022-10-09T01:39:51.261Z,102601.91
2022-10-09T01:40:24.833Z,102585.94
2022-10-09T01:40:57.246Z,102588.34
2022-10-09T01:41:29.553Z,102588.34
2022-10-09T01:42:01.536Z,102589.47
2022-10-09T01:42:33.075Z,102591.06
2022-10-09T01:43:05.602Z,102596.47
2022-10-09T01:43:37.194Z,102592.16
2022-10-09T01:44:21.358Z,102588.66
2022-10-09T01:44:52.829Z,102584.34
2022-10-09T01:45:24.267Z,102581.94
2022-10-09T01:46:27.389Z,102592.78
2022-10-09T01:46:59.984Z,102587.16
2022-10-09T01:47:31.278Z,102592.28
2022-10-09T01:48:02.631Z,102584.16
2022-10-09T01:48:34.831Z,102584.44
2022-10-09T01:49:08.897Z,102583.03
2022-10-09T01:50:06.371Z,102587.66
2022-10-09T01:50:43.226Z,102584.16
2022-10-09T01:51:18.006Z,102585.25
2022-10-09T01:52:05.276Z,102582.03
2022-10-09T01:53:07.535Z,102584.75
2022-10-09T01:53:39.987Z,102584.75
2022-10-09T01:54:14.493Z,102585.56
2022-10-09T01:55:13.036Z,102582.34
2022-10-09T01:55:56.463Z,102581.25
2022-10-09T01:56:33.267Z,102584.75
2022-10-09T01:57:08.314Z,102579.66
2022-10-09T01:58:01.276Z,102587.78
2022-10-09T01:58:44.218Z,102580.75
2022-10-09T01:59:18.608Z,102573.72
2022-10-09T01:59:52.332Z,102582.16
2022-10-09T02:00:24.556Z,102572.72
2022-10-09T02:01:05.857Z,102585.66
2022-10-09T02:01:39.438Z,102581.06
2022-10-09T02:02:11.648Z,102574.34
2022-10-09T02:02:44.508Z,102571.63
2022-10-09T02:03:16.864Z,102572.25
2022-10-09T02:03:51.916Z,102572.72
2022-10-09T02:04:24.263Z,102565.53
2022-10-09T02:04:56.388Z,102567.44
2022-10-09T02:05:30.179Z,102572.56
2022-10-09T02:06:05.817Z,102569.56
2022-10-09T02:06:40.333Z,102574.16
2022-10-09T02:07:12.053Z,102567.75
2022-10-09T02:07:43.923Z,102569.06
2022-10-09T02:08:19.001Z,102568.25
2022-10-09T02:08:53.013Z,102570.97
2022-10-09T02:09:25.412Z,102568.56
2022-10-09T02:09:57.967Z,102572.88
2022-10-09T02:10:30.323Z,102569.34
2022-10-09T02:11:03.193Z,102566.94
2022-10-09T02:11:35.949Z,102567.25
2022-10-09T02:12:10.228Z,102571.25
2022-10-09T02:12:46.899Z,102560.72
2022-10-09T02:13:18.791Z,102564.53
2022-10-09T02:13:52.892Z,102561.53
2022-10-09T02:14:24.421Z,102561.84
2022-10-09T02:14:56.189Z,102563.13
2022-10-09T02:15:34.623Z,102559.44
2022-10-09T02:16:17.719Z,102561.53
2022-10-09T02:17:14.069Z,102558.31
2022-10-09T02:17:48.915Z,102564.25
2022-10-09T02:18:26.898Z,102558.31
2022-10-09T02:19:03.272Z,102555.31
2022-10-09T02:19:43.644Z,102561.84
2022-10-09T02:20:27.568Z,102556.13
2022-10-09T02:21:08.787Z,102550.19
2022-10-09T02:21:46.777Z,102556.13
2022-10-09T02:22:31.880Z,102556.41
2022-10-09T02:23:07.221Z,102549.09
2022-10-09T02:23:41.493Z,102557.22
2022-10-09T02:24:18.346Z,102554.00
2022-10-09T02:24:49.817Z,102553.72
2022-10-09T02:25:21.655Z,102553.72
2022-10-09T02:25:53.656Z,102550.19
2022-10-09T02:26:26.464Z,102545.59
2022-10-09T02:26:58.995Z,102551.31
2022-10-09T02:27:30.610Z,102542.69
2022-10-09T02:28:03.269Z,102550.19
2022-10-09T02:28:35.219Z,102548.91
2022-10-09T02:29:07.069Z,102548.28
2022-10-09T02:29:43.248Z,102553.22
2022-10-09T02:30:15.667Z,102543.19
2022-10-09T02:30:56.160Z,102548.91
2022-10-09T02:31:30.360Z,102555.63
2022-10-09T02:32:01.733Z,102542.38
2022-10-09T02:32:33.074Z,102539.66
2022-10-09T02:33:05.678Z,102544.28
2022-10-09T02:33:37.060Z,102540.47
2022-10-09T02:34:11.597Z,102539.97
2022-10-09T02:34:43.429Z,102544.28
2022-10-09T02:35:14.742Z,102537.25
2022-10-09T02:35:46.086Z,102544.88
2022-10-09T02:36:17.584Z,102542.19
2022-10-09T02:36:49.176Z,102549.41
2022-10-09T02:37:20.510Z,102538.38
2022-10-09T02:37:51.805Z,102545.88
2022-10-09T02:38:23.161Z,102544.28
2022-10-09T02:38:55.579Z,102546.69
2022-10-09T02:39:26.887Z,102542.38
2022-10-09T02:39:58.255Z,102546.19
2022-10-09T02:40:29.579Z,102541.06
2022-10-09T02:41:01.869Z,102547.28
2022-10-09T02:41:33.974Z,102548.59
2022-10-09T02:42:05.386Z,102538.84
2022-10-09T02:42:36.995Z,102546.19
2022-10-09T02:43:08.292Z,102549.69
2022-10-09T02:43:39.801Z,102541.88
2022-10-09T02:44:11.300Z,102549.69
2022-10-09T02:44:42.705Z,102546.50
2022-10-09T02:45:14.213Z,102541.06
2022-10-09T02:45:45.716Z,102547.28
2022-10-09T02:46:18.018Z,102548.91
2022-10-09T02:46:49.403Z,102543.28
2022-10-09T02:47:20.781Z,102546.50
2022-10-09T02:47:52.099Z,102549.19
2022-10-09T02:48:23.475Z,102542.97
2022-10-09T02:48:54.908Z,102544.59
2022-10-09T02:49:26.264Z,102549.19
2022-10-09T02:49:57.646Z,102541.69
2022-10-09T02:50:29.009Z,102550.81
2022-10-09T02:51:01.429Z,102540.88
2022-10-09T02:51:32.732Z,102553.50
2022-10-09T02:52:04.444Z,102541.06
2022-10-09T02:52:35.753Z,102550.31
2022-10-09T02:53:07.072Z,102546.28
2022-10-09T02:53:38.906Z,102547.91
2022-10-09T02:54:10.591Z,102541.69
2022-10-09T02:54:41.959Z,102545.78
2022-10-09T02:55:13.276Z,102543.09
2022-10-09T02:55:44.632Z,102549.00
2022-10-09T02:56:15.977Z,102549.00
2022-10-09T02:56:47.277Z,102550.41
2022-10-09T02:57:18.581Z,102546.91
2022-10-09T02:57:49.908Z,102546.59
2022-10-09T02:58:21.243Z,102546.91
2022-10-09T02:58:52.730Z,102545.00
2022-10-09T02:59:24.037Z,102540.22
2022-10-09T02:59:55.354Z,102548.84
2022-10-09T03:00:26.718Z,102545.00
2022-10-09T03:00:58.078Z,102538.00
2022-10-09T03:01:29.471Z,102541.91
2022-10-09T03:02:00.996Z,102538.59
2022-10-09T03:02:32.455Z,102540.03
2022-10-09T03:03:03.972Z,102536.50
2022-10-09T03:03:35.349Z,102538.91
2022-10-09T03:04:06.849Z,102538.91
2022-10-09T03:04:38.221Z,102544.03
2022-10-09T03:05:10.977Z,102537.59
2022-10-09T03:05:42.333Z,102542.41
2022-10-09T03:06:17.073Z,102546.72
2022-10-09T03:06:48.580Z,102540.31
2022-10-09T03:07:19.917Z,102545.13
2022-10-09T03:07:53.166Z,102544.31
2022-10-09T03:08:24.466Z,102540.81
2022-10-09T03:08:56.266Z,102541.91
2022-10-09T03:09:33.435Z,102537.31
2022-10-09T03:10:05.449Z,102537.91
2022-10-09T03:10:37.832Z,102541.13
2022-10-09T03:11:10.560Z,102544.63
2022-10-09T03:11:42.147Z,102536.81
2022-10-09T03:12:16.019Z,102541.91
2022-10-09T03:12:48.382Z,102537.09
2022-10-09T03:13:20.138Z,102544.13
2022-10-09T03:13:51.923Z,102544.94
2022-10-09T03:14:23.217Z,102539.53
2022-10-09T03:14:54.593Z,102539.81
2022-10-09T03:15:25.891Z,102545.72
2022-10-09T03:16:03.337Z,102543.31
2022-10-09T03:16:34.917Z,102537.91
2022-10-09T03:17:06.460Z,102543.31
2022-10-09T03:17:38.433Z,102542.53
2022-10-09T03:18:09.760Z,102538.53
2022-10-09T03:18:41.933Z,102544.72
2022-10-09T03:19:13.241Z,102542.03
2022-10-09T03:19:44.729Z,102539.94
2022-10-09T03:20:16.493Z,102537.72
2022-10-09T03:20:48.106Z,102538.31
2022-10-09T03:21:22.197Z,102538.31
2022-10-09T03:21:53.558Z,102533.03
2022-10-09T03:22:24.919Z,102530.31
2022-10-09T03:22:56.976Z,102533.50
2022-10-09T03:23:29.413Z,102537.03
2022-10-09T03:24:00.730Z,102529.84
2022-10-09T03:24:32.038Z,102537.34
2022-10-09T03:25:03.535Z,102537.16
2022-10-09T03:25:34.850Z,102539.56
2022-10-09T03:26:09.286Z,102537.66
2022-10-09T03:26:40.802Z,102531.44
2022-10-09T03:27:12.311Z,102530.63
2022-10-09T03:27:43.739Z,102533.63
2022-10-09T03:28:15.069Z,102539.56
2022-10-09T03:28:48.512Z,102536.53
2022-10-09T03:29:19.913Z,102539.56
2022-10-09T03:29:51.413Z,102537.94
2022-10-09T03:30:22.808Z,102539.84
2022-10-09T03:30:54.353Z,102540.97
2022-10-09T03:31:50.343Z,102540.66
2022-10-09T03:32:18.156Z,102533.63
2022-10-09T03:32:49.739Z,102539.06
2022-10-09T03:33:21.675Z,102542.56
2022-10-09T03:33:52.986Z,102538.25
2022-10-09T03:34:24.339Z,102542.06
2022-10-09T03:34:55.673Z,102541.25
2022-10-09T03:35:27.033Z,102536.16
2022-10-09T03:35:58.360Z,102542.06
2022-10-09T03:36:29.751Z,102538.56
2022-10-09T03:37:01.255Z,102537.75
2022-10-09T03:37:32.973Z,102537.75
2022-10-09T03:38:04.339Z,102535.84
2022-10-09T03:38:35.662Z,102527.19
2022-10-09T03:39:07.067Z,102532.59
2022-10-09T03:39:38.401Z,102532.91
2022-10-09T03:40:10.390Z,102535.84
2022-10-09T03:40:42.021Z,102542.38
2022-10-09T03:41:13.390Z,102541.84
2022-10-09T03:41:44.780Z,102533.72
2022-10-09T03:42:16.098Z,102541.56
2022-10-09T03:42:47.716Z,102536.16
2022-10-09T03:43:20.680Z,102538.84
2022-10-09T03:43:51.985Z,102536.41
2022-10-09T03:44:23.453Z,102543.16
2022-10-09T03:44:54.986Z,102536.16
2022-10-09T03:45:26.279Z,102536.66
2022-10-09T03:46:00.998Z,102542.88
2022-10-09T03:46:32.697Z,102535.31
2022-10-09T03:47:04.140Z,102541.25
2022-10-09T03:47:35.491Z,102543.44
2022-10-09T03:48:07.484Z,102540.72
2022-10-09T03:48:38.861Z,102540.72
2022-10-09T03:49:10.382Z,102534.31
2022-10-09T03:49:42.170Z,102544.53
2022-10-09T03:50:13.525Z,102538.13
2022-10-09T03:50:44.968Z,102532.41
2022-10-09T03:51:16.277Z,102536.72
2022-10-09T03:51:47.628Z,102542.44
2022-10-09T03:52:18.956Z,102528.09
2022-10-09T03:52:50.905Z,102534.31
2022-10-09T03:53:22.516Z,102538.13
2022-10-09T03:53:53.840Z,102546.25
2022-10-09T03:54:25.532Z,102541.94
2022-10-09T03:54:56.852Z,102537.63
2022-10-09T03:55:28.168Z,102534.91
2022-10-09T03:55:59.523Z,102533.81
2022-10-09T03:56:30.864Z,102547.03
2022-10-09T03:57:02.222Z,102544.13
2022-10-09T03:57:33.753Z,102538.13
2022-10-09T03:58:05.425Z,102541.63
2022-10-09T03:58:36.769Z,102543.53
2022-10-09T03:59:09.516Z,102541.63
2022-10-09T03:59:40.971Z,102542.75
2022-10-09T04:00:12.957Z,102534.13
2022-10-09T04:00:46.238Z,102535.53
2022-10-09T04:01:17.676Z,102539.81
2022-10-09T04:01:49.064Z,102544.13
2022-10-09T04:02:20.423Z,102547.94
2022-10-09T04:02:52.364Z,102544.78
2022-10-09T04:03:24.133Z,102541.72
2022-10-09T04:03:55.679Z,102547.16
2022-10-09T04:04:27.207Z,102545.53
2022-10-09T04:04:58.674Z,102545.53
2022-10-09T04:05:33.409Z,102554.47
2022-10-09T04:06:05.045Z,102551.28
2022-10-09T04:06:36.362Z,102548.25
2022-10-09T04:07:07.711Z,102548.88
2022-10-09T04:07:39.053Z,102550.47
2022-10-09T04:08:10.444Z,102550.19
2022-10-09T04:08:41.921Z,102547.56
2022-10-09T04:09:13.257Z,102546.16
2022-10-09T04:09:44.593Z,102547.56
2022-10-09T04:10:16.018Z,102546.78
2022-10-09T04:10:47.331Z,102549.19
2022-10-09T04:11:18.696Z,102554.59
2022-10-09T04:11:50.130Z,102552.69
2022-10-09T04:12:21.577Z,102547.88
2022-10-09T04:12:52.903Z,102556.19
2022-10-09T04:13:24.359Z,102557.31
2022-10-09T04:13:55.661Z,102552.19
2022-10-09T04:14:26.997Z,102543.88
2022-10-09T04:14:58.693Z,102547.38
2022-10-09T04:15:30.176Z,102551.69
2022-10-09T04:16:01.634Z,102547.06
2022-10-09T04:16:33.226Z,102546.56
2022-10-09T04:17:04.565Z,102558.19
2022-10-09T04:17:36.505Z,102550.09
2022-10-09T04:18:07.877Z,102552.78
2022-10-09T04:18:40.664Z,102557.41
2022-10-09T04:19:12.118Z,102553.09
2022-10-09T04:19:43.607Z,102560.09
2022-10-09T04:20:15.077Z,102559.31
2022-10-09T04:20:53.607Z,102550.38
2022-10-09T04:21:25.052Z,102555.00
2022-10-09T04:21:56.332Z,102561.19
2022-10-09T04:22:28.039Z,102555.59
2022-10-09T04:22:59.430Z,102555.59
2022-10-09T04:23:31.093Z,102551.56
2022-10-09T04:24:03.586Z,102550.47
2022-10-09T04:24:34.893Z,102545.34
2022-10-09T04:25:06.479Z,102548.56
2022-10-09T04:25:37.875Z,102552.69
2022-10-09T04:26:13.130Z,102548.38
2022-10-09T04:26:44.474Z,102543.75
2022-10-09T04:27:16.277Z,102546.97
2022-10-09T04:27:47.643Z,102546.47
2022-10-09T04:28:19.059Z,102549.16
2022-10-09T04:28:50.482Z,102545.34
2022-10-09T04:29:21.836Z,102548.06
2022-10-09T04:29:53.138Z,102545.34
2022-10-09T04:30:24.458Z,102548.88
2022-10-09T04:30:57.413Z,102548.06
2022-10-09T04:31:28.932Z,102541.84
2022-10-09T04:32:01.072Z,102539.16
2022-10-09T04:32:32.424Z,102543.75
2022-10-09T04:33:04.047Z,102540.25
2022-10-09T04:33:35.601Z,102537.53
2022-10-09T04:34:06.941Z,102544.09
2022-10-09T04:34:38.301Z,102532.75
2022-10-09T04:35:09.600Z,102537.06
2022-10-09T04:35:45.197Z,102538.97
2022-10-09T04:36:16.708Z,102542.94
2022-10-09T04:36:48.061Z,102536.56
2022-10-09T04:37:19.622Z,102537.38
2022-10-09T04:37:51.115Z,102533.84
2022-10-09T04:38:24.358Z,102529.53
2022-10-09T04:38:55.731Z,102530.94
2022-10-09T04:39:27.276Z,102540.38
2022-10-09T04:39:58.624Z,102532.84
2022-10-09T04:40:29.950Z,102527.75
2022-10-09T04:41:04.207Z,102532.84
2022-10-09T04:41:38.370Z,102538.25
2022-10-09T04:42:09.932Z,102531.75
2022-10-09T04:42:41.338Z,102538.78
2022-10-09T04:43:12.662Z,102540.66
2022-10-09T04:43:44.158Z,102533.66
2022-10-09T04:44:15.605Z,102530.44
2022-10-09T04:44:47.088Z,102536.66
2022-10-09T04:45:18.397Z,102537.47
2022-10-09T04:45:49.846Z,102539.06
2022-10-09T04:46:21.288Z,102530.16
2022-10-09T04:46:52.660Z,102530.16
2022-10-09T04:47:24.074Z,102528.53
2022-10-09T04:47:55.375Z,102534.56
2022-10-09T04:48:26.735Z,102529.94
2022-10-09T04:48:58.114Z,102522.13
2022-10-09T04:49:29.677Z,102524.31
2022-10-09T04:50:01.044Z,102528.34
2022-10-09T04:50:32.352Z,102519.91
2022-10-09T04:51:05.145Z,102524.03
2022-10-09T04:51:36.433Z,102525.63
2022-10-09T04:52:07.843Z,102517.81
2022-10-09T04:52:39.342Z,102525.34
2022-10-09T04:53:10.696Z,102522.94
2022-10-09T04:53:42.855Z,102524.84
2022-10-09T04:54:14.197Z,102516.22
2022-10-09T04:54:45.749Z,102529.13
2022-10-09T04:55:17.085Z,102523.72
2022-10-09T04:55:48.543Z,102523.72
2022-10-09T04:56:20.821Z,102522.13
2022-10-09T04:56:52.127Z,102524.84
2022-10-09T04:57:23.467Z,102527.03
2022-10-09T04:57:55.106Z,102529.75
2022-10-09T04:58:26.634Z,102524.13
2022-10-09T04:58:57.964Z,102531.34
2022-10-09T04:59:29.433Z,102530.34
2022-10-09T05:00:00.969Z,102529.75
2022-10-09T05:00:32.465Z,102527.34
2022-10-09T05:01:11.793Z,102519.50
2022-10-09T05:01:43.214Z,102520.31
2022-10-09T05:02:14.917Z,102517.91
2022-10-09T05:02:46.436Z,102522.50
2022-10-09T05:03:18.193Z,102527.63
2022-10-09T05:03:49.733Z,102522.84
2022-10-09T05:04:21.020Z,102521.25
2022-10-09T05:04:52.392Z,102527.94
2022-10-09T05:05:23.744Z,102529.06
2022-10-09T05:06:00.839Z,102520.13
2022-10-09T05:06:32.217Z,102528.25
2022-10-09T05:07:03.648Z,102525.53
2022-10-09T05:07:34.961Z,102515.31
2022-10-09T05:08:06.579Z,102521.84
2022-10-09T05:08:38.641Z,102522.34
2022-10-09T05:09:09.956Z,102518.31
2022-10-09T05:09:41.283Z,102522.13
2022-10-09T05:10:12.618Z,102517.53
2022-10-09T05:10:43.948Z,102525.34
2022-10-09T05:11:22.085Z,102522.63
2022-10-09T05:11:53.655Z,102521.34
2022-10-09T05:12:25.168Z,102526.44
2022-10-09T05:12:56.456Z,102520.22
2022-10-09T05:13:32.742Z,102522.13
2022-10-09T05:14:04.070Z,102522.13
2022-10-09T05:14:35.364Z,102524.53
2022-10-09T05:15:07.133Z,102521.63
2022-10-09T05:15:38.450Z,102524.84
2022-10-09T05:16:14.802Z,102528.34
2022-10-09T05:17:12.033Z,102527.53
2022-10-09T05:17:37.736Z,102524.03
2022-10-09T05:18:09.353Z,102521.34
2022-10-09T05:18:49.111Z,102517.03
2022-10-09T05:19:20.669Z,102519.72
2022-10-09T05:19:52.192Z,102507.59
2022-10-09T05:20:23.722Z,102518.13
2022-10-09T05:20:55.088Z,102506.00
2022-10-09T05:21:27.900Z,102510.81
2022-10-09T05:22:00.745Z,102506.19
2022-10-09T05:22:32.190Z,102517.31
2022-10-09T05:23:03.696Z,102516.22
2022-10-09T05:23:35.676Z,102509.50
2022-10-09T05:24:10.249Z,102505.50
2022-10-09T05:24:42.197Z,102518.41
2022-10-09T05:25:14.071Z,102514.91
2022-10-09T05:25:57.197Z,102514.09
2022-10-09T05:26:28.926Z,102511.69
2022-10-09T05:27:00.290Z,102515.50
2022-10-09T05:27:31.635Z,102516.00
2022-10-09T05:28:04.645Z,102511.78
2022-10-09T05:28:36.544Z,102512.28
2022-10-09T05:29:07.943Z,102517.09
2022-10-09T05:29:39.324Z,102511.50
2022-10-09T05:30:11.103Z,102507.69
2022-10-09T05:30:42.553Z,102511.50
2022-10-09T05:31:21.755Z,102515.50
2022-10-09T05:31:53.430Z,102515.81
2022-10-09T05:32:24.778Z,102515.00
2022-10-09T05:32:56.078Z,102507.50
2022-10-09T05:33:28.844Z,102517.72
2022-10-09T05:34:01.543Z,102514.50
2022-10-09T05:34:34.108Z,102507.50
2022-10-09T05:35:05.924Z,102506.38
2022-10-09T05:35:37.453Z,102511.03
2022-10-09T05:36:08.752Z,102516.91
2022-10-09T05:36:40.145Z,102512.28
2022-10-09T05:37:11.478Z,102513.41
2022-10-09T05:37:45.270Z,102519.13
2022-10-09T05:38:16.968Z,102508.09
2022-10-09T05:38:48.314Z,102509.09
2022-10-09T05:39:19.703Z,102518.50
2022-10-09T05:39:51.067Z,102504.31
2022-10-09T05:40:25.870Z,102509.88
2022-10-09T05:41:02.868Z,102518.81
2022-10-09T05:41:34.161Z,102511.03
2022-10-09T05:42:06.024Z,102511.78
2022-10-09T05:42:37.337Z,102516.91
2022-10-09T05:43:08.627Z,102512.28
2022-10-09T05:43:42.458Z,102513.41
2022-10-09T05:44:13.808Z,102508.31
2022-10-09T05:44:45.123Z,102508.31
2022-10-09T05:45:16.470Z,102509.41
2022-10-09T05:45:48.065Z,102508.63
2022-10-09T05:46:24.666Z,102512.59
2022-10-09T05:46:56.039Z,102508.00
2022-10-09T05:47:30.027Z,102515.31
2022-10-09T05:48:01.313Z,102511.78
2022-10-09T05:48:32.678Z,102512.59
2022-10-09T05:49:05.520Z,102513.72
2022-10-09T05:49:36.845Z,102503.50
2022-10-09T05:50:08.629Z,102502.41
2022-10-09T05:50:40.237Z,102511.31
2022-10-09T05:51:17.964Z,102514.81
2022-10-09T05:51:49.899Z,102519.44
2022-10-09T05:52:21.802Z,102512.41
2022-10-09T05:52:53.311Z,102517.53
2022-10-09T05:53:24.622Z,102511.31
2022-10-09T05:53:56.748Z,102515.91
2022-10-09T05:54:28.193Z,102513.22
2022-10-09T05:54:59.557Z,102511.09
2022-10-09T05:55:30.946Z,102512.41
2022-10-09T05:56:20.473Z,102517.53
2022-10-09T05:56:51.872Z,102515.13
2022-10-09T05:57:23.332Z,102514.03
2022-10-09T05:57:54.691Z,102502.50
2022-10-09T05:58:26.214Z,102507.59
2022-10-09T05:58:59.919Z,102509.22
2022-10-09T05:59:31.326Z,102513.50
2022-10-09T06:00:03.935Z,102510.31
2022-10-09T06:00:35.290Z,102508.69
2022-10-09T06:01:08.439Z,102511.91
2022-10-09T06:01:42.629Z,102512.41
2022-10-09T06:02:14.517Z,102513.00
2022-10-09T06:02:46.040Z,102517.81
2022-10-09T06:03:17.548Z,102517.53
2022-10-09T06:03:50.916Z,102521.03
2022-10-09T06:04:24.117Z,102520.53
2022-10-09T06:04:55.428Z,102517.31
2022-10-09T06:05:26.805Z,102519.44
2022-10-09T06:06:01.876Z,102519.72
2022-10-09T06:06:36.697Z,102517.31
2022-10-09T06:07:08.146Z,102521.34
2022-10-09T06:07:39.450Z,102521.94
2022-10-09T06:08:10.751Z,102516.00
2022-10-09T06:08:42.107Z,102525.94
2022-10-09T06:09:15.231Z,102520.03
2022-10-09T06:09:46.561Z,102517.91
2022-10-09T06:10:18.081Z,102521.94
2022-10-09T06:10:49.401Z,102514.69
2022-10-09T06:11:28.494Z,102531.94
2022-10-09T06:12:00.054Z,102528.72
2022-10-09T06:12:31.492Z,102534.13
2022-10-09T06:13:02.831Z,102527.13
2022-10-09T06:13:34.132Z,102526.31
2022-10-09T06:14:07.461Z,102532.53
2022-10-09T06:14:38.815Z,102530.94
2022-10-09T06:15:10.561Z,102525.81
2022-10-09T06:15:54.682Z,102532.53
2022-10-09T06:16:32.267Z,102533.34
2022-10-09T06:17:03.694Z,102531.72
2022-10-09T06:17:35.235Z,102536.34
2022-10-09T06:18:06.554Z,102529.53
2022-10-09T06:18:38.935Z,102531.44
2022-10-09T06:19:12.239Z,102535.75
2022-10-09T06:19:43.585Z,102530.13
2022-10-09T06:20:15.023Z,102539.53
2022-10-09T06:20:56.773Z,102538.44
2022-10-09T06:21:28.873Z,102541.94
2022-10-09T06:22:00.196Z,102540.34
2022-10-09T06:22:31.739Z,102543.06